createdAt,value
2019-06-19T00:02:08.212Z,19.30
2019-06-19T00:04:39.764Z,19.30
2019-06-19T00:07:10.749Z,19.40
2019-06-19T00:09:42.190Z,19.50
2019-06-19T00:12:13.246Z,19.50
2019-06-19T00:14:44.267Z,19.50
2019-06-19T00:17:15.233Z,19.50
2019-06-19T00:19:46.189Z,19.30
2019-06-19T00:22:18.183Z,19.20
2019-06-19T00:24:49.128Z,19.20
2019-06-19T00:27:20.088Z,19.40
2019-06-19T00:29:51.519Z,19.50
2019-06-19T00:32:22.582Z,19.50
2019-06-19T00:34:53.525Z,19.60
2019-06-19T00:37:24.495Z,19.60
2019-06-19T00:39:55.439Z,19.40
2019-06-19T00:42:26.407Z,19.30
2019-06-19T00:44:57.361Z,19.20
2019-06-19T00:47:28.332Z,19.20
2019-06-19T00:50:00.906Z,19.20
2019-06-19T00:52:33.122Z,19.20
2019-06-19T00:55:06.234Z,19.10
2019-06-19T00:57:37.206Z,19.00
2019-06-19T01:00:08.940Z,18.90
2019-06-19T01:02:40.726Z,18.80
2019-06-19T01:05:11.838Z,18.70
2019-06-19T01:07:42.803Z,18.70
2019-06-19T01:10:14.048Z,18.70
2019-06-19T01:12:45.020Z,19.00
2019-06-19T01:15:17.363Z,19.00
2019-06-19T01:17:50.609Z,19.10
2019-06-19T01:20:21.435Z,19.00
2019-06-19T01:22:52.440Z,19.00
2019-06-19T01:25:23.388Z,19.00
2019-06-19T01:27:54.404Z,18.90
2019-06-19T01:30:25.345Z,18.80
2019-06-19T01:32:56.320Z,18.60
2019-06-19T01:35:27.258Z,18.40
2019-06-19T01:37:58.237Z,18.40
2019-06-19T01:40:31.269Z,18.40
2019-06-19T01:43:02.427Z,18.40
2019-06-19T01:45:33.534Z,18.40
2019-06-19T01:48:05.908Z,18.40
2019-06-19T01:50:36.857Z,18.40
2019-06-19T01:54:01.834Z,18.40
2019-06-19T01:56:32.927Z,18.40
2019-06-19T01:59:03.907Z,18.30
2019-06-19T02:01:34.847Z,18.10
2019-06-19T02:04:06.157Z,18.00
2019-06-19T02:06:37.107Z,17.80
2019-06-19T02:09:11.258Z,17.70
2019-06-19T02:11:42.566Z,17.60
2019-06-19T02:14:13.558Z,17.60
2019-06-19T02:16:44.432Z,17.50
2019-06-19T02:19:15.409Z,17.50
2019-06-19T02:21:46.349Z,17.50
2019-06-19T02:24:17.350Z,17.70
2019-06-19T02:26:50.672Z,17.60
2019-06-19T02:29:21.362Z,17.50
2019-06-19T02:31:53.776Z,17.40
2019-06-19T02:34:25.245Z,17.30
2019-06-19T02:36:56.233Z,17.20
2019-06-19T02:39:27.200Z,17.30
2019-06-19T02:41:58.146Z,17.30
2019-06-19T02:44:29.451Z,17.20
2019-06-19T02:47:00.551Z,17.30
2019-06-19T02:49:31.507Z,17.40
2019-06-19T02:52:02.467Z,17.30
2019-06-19T02:54:33.439Z,17.20
2019-06-19T02:57:04.378Z,17.10
2019-06-19T02:59:35.356Z,17.20
2019-06-19T03:02:06.311Z,17.10
2019-06-19T03:04:37.619Z,17.10
2019-06-19T03:07:08.817Z,17.00
2019-06-19T03:09:39.800Z,16.90
2019-06-19T03:12:10.809Z,16.90
2019-06-19T03:14:42.991Z,17.00
2019-06-19T03:17:13.985Z,17.10
2019-06-19T03:19:44.970Z,17.20
2019-06-19T03:22:15.907Z,17.30
2019-06-19T03:24:49.555Z,17.40
2019-06-19T03:27:20.487Z,17.30
2019-06-19T03:29:51.489Z,17.20
2019-06-19T03:32:22.428Z,17.30
2019-06-19T03:34:53.403Z,17.20
2019-06-19T03:37:24.344Z,17.10
2019-06-19T03:39:55.313Z,17.10
2019-06-19T03:42:27.254Z,17.00
2019-06-19T03:44:58.258Z,17.10
2019-06-19T03:47:29.450Z,17.10
2019-06-19T03:50:00.872Z,17.10
2019-06-19T03:52:31.811Z,17.10
2019-06-19T03:55:02.790Z,17.10
2019-06-19T03:57:33.738Z,17.10
2019-06-19T04:00:08.190Z,17.20
2019-06-19T04:02:39.385Z,17.20
2019-06-19T04:05:10.360Z,17.30
2019-06-19T04:07:41.299Z,17.40
2019-06-19T04:10:15.220Z,17.50
2019-06-19T04:12:46.195Z,17.60
2019-06-19T04:15:18.958Z,17.70
2019-06-19T04:17:49.902Z,17.70
2019-06-19T04:20:20.888Z,17.70
2019-06-19T04:22:51.828Z,17.70
2019-06-19T04:25:22.804Z,17.90
2019-06-19T04:27:54.047Z,17.90
2019-06-19T04:30:26.603Z,17.90
2019-06-19T04:32:57.546Z,18.00
2019-06-19T04:35:28.734Z,18.10
2019-06-19T04:37:59.668Z,18.30
2019-06-19T04:40:30.643Z,18.40
2019-06-19T04:43:01.592Z,18.60
2019-06-19T04:45:32.565Z,18.60
2019-06-19T04:48:03.510Z,18.70
2019-06-19T04:50:35.993Z,18.70
2019-06-19T04:53:06.999Z,18.80
2019-06-19T04:55:37.976Z,19.10
2019-06-19T04:58:09.309Z,19.10
2019-06-19T05:00:41.238Z,19.10
2019-06-19T05:03:12.332Z,19.20
2019-06-19T05:05:43.309Z,19.40
2019-06-19T05:08:23.665Z,19.40
2019-06-19T05:10:54.240Z,19.60
2019-06-19T05:13:25.180Z,19.80
2019-06-19T05:15:56.232Z,19.90
2019-06-19T05:18:27.171Z,19.90
2019-06-19T05:20:58.150Z,20.10
2019-06-19T05:23:29.092Z,20.30
2019-06-19T05:26:00.062Z,20.30
2019-06-19T05:28:31.010Z,20.30
2019-06-19T05:31:01.971Z,20.40
2019-06-19T05:33:32.914Z,20.40
2019-06-19T05:36:03.885Z,20.60
2019-06-19T05:38:34.828Z,20.80
2019-06-19T05:41:05.943Z,21.00
2019-06-19T05:43:37.014Z,21.20
2019-06-19T05:46:07.996Z,21.30
2019-06-19T05:48:38.941Z,21.30
2019-06-19T05:51:09.903Z,21.40
2019-06-19T05:53:40.842Z,21.50
2019-06-19T05:56:11.910Z,21.70
2019-06-19T05:58:42.878Z,21.90
2019-06-19T06:01:13.907Z,22.00
2019-06-19T06:03:44.853Z,22.20
2019-06-19T06:06:15.815Z,22.40
2019-06-19T06:08:46.768Z,22.60
2019-06-19T06:11:17.741Z,22.60
2019-06-19T06:13:48.677Z,22.60
2019-06-19T06:16:19.645Z,22.70
2019-06-19T06:18:50.585Z,22.80
2019-06-19T06:21:33.114Z,22.80
2019-06-19T06:24:04.057Z,22.80
2019-06-19T06:26:35.064Z,22.80
2019-06-19T06:29:06.128Z,22.90
2019-06-19T06:31:37.101Z,22.80
2019-06-19T06:34:08.051Z,22.80
2019-06-19T06:36:39.065Z,22.80
2019-06-19T06:39:10.041Z,23.00
2019-06-19T06:41:41.043Z,23.10
2019-06-19T06:44:11.987Z,23.20
2019-06-19T06:46:42.931Z,23.30
2019-06-19T06:49:13.910Z,23.40
2019-06-19T06:51:44.851Z,23.50
2019-06-19T06:54:15.892Z,23.40
2019-06-19T06:56:46.834Z,23.30
2019-06-19T06:59:17.812Z,23.30
2019-06-19T07:01:48.748Z,23.50
2019-06-19T07:04:19.727Z,23.50
2019-06-19T07:06:50.685Z,23.70
2019-06-19T07:09:21.643Z,23.90
2019-06-19T07:11:52.583Z,24.10
2019-06-19T07:14:23.648Z,24.30
2019-06-19T07:16:54.593Z,24.50
2019-06-19T07:19:25.560Z,24.80
2019-06-19T07:21:56.519Z,24.80
2019-06-19T07:24:27.563Z,24.90
2019-06-19T07:26:58.514Z,24.90
2019-06-19T07:29:29.487Z,24.90
2019-06-19T07:32:00.358Z,24.80
2019-06-19T07:34:31.326Z,24.80
2019-06-19T07:37:02.320Z,25.00
2019-06-19T07:39:33.315Z,25.10
2019-06-19T07:42:04.257Z,25.20
2019-06-19T07:44:35.356Z,25.30
2019-06-19T07:47:06.365Z,25.10
2019-06-19T07:49:37.346Z,24.80
2019-06-19T07:52:08.285Z,24.40
2019-06-19T07:54:39.269Z,24.20
2019-06-19T07:57:10.243Z,24.10
2019-06-19T07:59:41.265Z,24.20
2019-06-19T08:02:12.211Z,24.00
2019-06-19T08:04:43.184Z,23.70
2019-06-19T08:07:14.130Z,23.70
2019-06-19T08:09:46.100Z,23.70
2019-06-19T08:12:17.037Z,23.60
2019-06-19T08:14:48.027Z,23.70
2019-06-19T08:17:19.023Z,23.80
2019-06-19T08:19:50.001Z,23.80
2019-06-19T08:22:20.944Z,23.90
2019-06-19T08:24:52.029Z,23.90
2019-06-19T08:27:25.791Z,24.00
2019-06-19T08:29:56.769Z,24.20
2019-06-19T08:32:27.776Z,24.10
2019-06-19T08:34:58.768Z,24.20
2019-06-19T08:37:30.775Z,24.20
2019-06-19T08:40:01.742Z,24.10
2019-06-19T08:42:32.671Z,24.10
2019-06-19T08:45:05.756Z,24.30
2019-06-19T08:47:36.692Z,24.50
2019-06-19T08:50:08.110Z,24.70
2019-06-19T08:52:39.061Z,24.60
2019-06-19T08:55:10.171Z,24.60
2019-06-19T08:57:41.155Z,24.60
2019-06-19T09:00:12.728Z,24.70
2019-06-19T09:02:43.725Z,24.80
2019-06-19T09:05:14.752Z,24.90
2019-06-19T09:07:45.684Z,25.20
2019-06-19T09:10:20.856Z,25.30
2019-06-19T09:12:51.791Z,25.50
2019-06-19T09:15:22.767Z,25.70
2019-06-19T09:17:53.780Z,25.70
2019-06-19T09:20:24.824Z,25.90
2019-06-19T09:22:55.688Z,26.20
2019-06-19T09:25:26.656Z,26.30
2019-06-19T09:27:57.599Z,26.20
2019-06-19T09:30:33.074Z,26.20
2019-06-19T09:33:04.016Z,26.10
2019-06-19T09:35:34.988Z,26.20
2019-06-19T09:38:05.976Z,26.30
2019-06-19T09:40:36.909Z,26.60
2019-06-19T09:43:07.893Z,26.80
2019-06-19T09:45:38.958Z,27.10
2019-06-19T09:48:10.005Z,27.30
2019-06-19T09:50:40.967Z,28.60
2019-06-19T09:53:11.916Z,30.90
2019-06-19T09:55:42.955Z,33.40
2019-06-19T09:58:14.299Z,35.60
2019-06-19T10:00:45.415Z,37.60
2019-06-19T10:03:16.435Z,39.20
2019-06-19T10:05:47.458Z,38.40
2019-06-19T10:08:18.434Z,36.10
2019-06-19T10:10:49.426Z,35.20
2019-06-19T10:13:20.436Z,35.90
2019-06-19T10:16:01.553Z,37.10
2019-06-19T10:18:24.052Z,38.20
2019-06-19T10:20:55.025Z,37.70
2019-06-19T10:23:26.070Z,37.30
2019-06-19T10:25:57.088Z,36.90
2019-06-19T10:28:28.020Z,38.10
2019-06-19T10:30:58.996Z,39.40
2019-06-19T10:33:29.938Z,38.30
2019-06-19T10:36:00.898Z,38.00
2019-06-19T10:38:31.837Z,38.40
2019-06-19T10:41:02.860Z,39.00
2019-06-19T10:43:33.837Z,39.30
2019-06-19T10:46:05.809Z,39.50
2019-06-19T10:48:36.744Z,39.20
2019-06-19T10:51:07.739Z,39.60
2019-06-19T10:53:38.734Z,41.10
2019-06-19T10:56:09.700Z,42.50
2019-06-19T10:58:40.698Z,42.50
2019-06-19T11:01:11.699Z,42.90
2019-06-19T11:03:42.770Z,42.90
2019-06-19T11:06:13.788Z,43.00
2019-06-19T11:08:44.739Z,40.80
2019-06-19T11:11:15.716Z,40.40
2019-06-19T11:13:46.664Z,39.40
2019-06-19T11:16:17.699Z,37.50
2019-06-19T11:18:48.649Z,35.80
2019-06-19T11:21:19.625Z,36.40
2019-06-19T11:23:50.557Z,37.60
2019-06-19T11:26:21.528Z,38.50
2019-06-19T11:28:52.467Z,39.10
2019-06-19T11:31:23.442Z,39.60
2019-06-19T11:33:54.386Z,40.00
2019-06-19T11:36:25.398Z,38.60
2019-06-19T11:38:56.334Z,38.60
2019-06-19T11:41:27.307Z,39.70
2019-06-19T11:43:58.205Z,40.30
2019-06-19T11:46:29.240Z,41.40
2019-06-19T11:49:00.181Z,42.40
2019-06-19T11:51:31.149Z,42.50
2019-06-19T11:54:02.222Z,42.40
2019-06-19T11:56:33.327Z,42.40
2019-06-19T11:59:04.334Z,43.10
2019-06-19T12:01:35.307Z,44.20
2019-06-19T12:04:06.289Z,43.20
2019-06-19T12:06:37.316Z,41.70
2019-06-19T12:09:11.129Z,40.90
2019-06-19T12:11:42.070Z,41.60
2019-06-19T12:14:18.816Z,41.50
2019-06-19T12:16:45.691Z,40.60
2019-06-19T12:19:16.673Z,40.90
2019-06-19T12:21:47.602Z,41.00
2019-06-19T12:24:19.583Z,41.30
2019-06-19T12:26:50.592Z,41.70
2019-06-19T12:29:21.580Z,41.90
2019-06-19T12:31:52.613Z,41.40
2019-06-19T12:34:23.596Z,41.00
2019-06-19T12:36:54.521Z,40.20
2019-06-19T12:39:25.499Z,40.50
2019-06-19T12:41:56.443Z,41.80
2019-06-19T12:44:27.475Z,42.90
2019-06-19T12:46:58.403Z,43.90
2019-06-19T12:49:29.429Z,43.30
2019-06-19T12:52:00.376Z,42.80
2019-06-19T12:54:31.421Z,40.50
2019-06-19T12:57:02.360Z,38.10
2019-06-19T12:59:33.334Z,37.10
2019-06-19T13:02:04.274Z,36.90
2019-06-19T13:04:35.305Z,37.50
2019-06-19T13:07:06.242Z,38.90
2019-06-19T13:09:37.220Z,40.20
2019-06-19T13:12:08.167Z,41.20
2019-06-19T13:14:39.205Z,41.90
2019-06-19T13:17:10.139Z,43.00
2019-06-19T13:19:41.103Z,43.30
2019-06-19T13:22:12.055Z,43.50
2019-06-19T13:24:43.090Z,43.90
2019-06-19T13:27:14.104Z,44.20
2019-06-19T13:29:45.132Z,44.70
2019-06-19T13:32:16.092Z,45.20
2019-06-19T13:34:47.057Z,45.50
2019-06-19T13:37:17.994Z,45.50
2019-06-19T13:39:49.033Z,44.50
2019-06-19T13:42:20.013Z,44.10
2019-06-19T13:44:51.041Z,43.50
2019-06-19T13:47:21.986Z,42.40
2019-06-19T13:49:52.951Z,39.80
2019-06-19T13:52:23.892Z,39.50
2019-06-19T13:54:54.863Z,40.60
2019-06-19T13:57:25.817Z,41.40
2019-06-19T13:59:56.781Z,41.90
2019-06-19T14:02:31.146Z,42.20
2019-06-19T14:05:02.641Z,42.50
2019-06-19T14:07:33.533Z,42.40
2019-06-19T14:10:06.527Z,41.30
2019-06-19T14:12:37.498Z,41.80
2019-06-19T14:15:09.359Z,42.50
2019-06-19T14:17:40.327Z,42.80
2019-06-19T14:20:11.905Z,42.90
2019-06-19T14:22:42.845Z,42.80
2019-06-19T14:25:14.509Z,43.00
2019-06-19T14:27:45.466Z,43.00
2019-06-19T14:30:16.935Z,42.60
2019-06-19T14:32:47.864Z,42.40
2019-06-19T14:35:18.849Z,42.50
2019-06-19T14:37:49.795Z,42.50
2019-06-19T14:40:20.763Z,43.00
2019-06-19T14:42:51.735Z,42.80
2019-06-19T14:45:22.742Z,41.70
2019-06-19T14:47:53.758Z,41.40
2019-06-19T14:50:24.730Z,41.90
2019-06-19T14:52:55.736Z,42.40
2019-06-19T14:55:26.798Z,42.60
2019-06-19T14:57:57.743Z,41.90
2019-06-19T15:00:55.668Z,40.40
2019-06-19T15:03:26.666Z,39.70
2019-06-19T15:05:57.629Z,39.90
2019-06-19T15:08:28.522Z,39.10
2019-06-19T15:10:59.507Z,38.90
2019-06-19T15:13:30.444Z,38.80
2019-06-19T15:16:01.427Z,38.40
2019-06-19T15:18:32.434Z,38.90
2019-06-19T15:21:03.403Z,39.00
2019-06-19T15:23:34.341Z,38.50
2019-06-19T15:26:05.312Z,38.70
2019-06-19T15:28:36.252Z,39.00
2019-06-19T15:31:07.228Z,39.80
2019-06-19T15:33:38.171Z,40.50
2019-06-19T15:36:09.138Z,40.40
2019-06-19T15:38:40.075Z,40.60
2019-06-19T15:41:11.051Z,40.90
2019-06-19T15:43:41.983Z,41.20
2019-06-19T15:46:12.964Z,41.50
2019-06-19T15:48:43.912Z,41.70
2019-06-19T15:51:14.884Z,42.00
2019-06-19T15:53:45.859Z,41.40
2019-06-19T15:56:16.831Z,41.30
2019-06-19T15:58:47.769Z,40.70
2019-06-19T16:01:26.247Z,39.50
2019-06-19T16:03:58.391Z,39.50
2019-06-19T16:06:29.477Z,40.20
2019-06-19T16:09:00.642Z,40.30
2019-06-19T16:11:33.199Z,40.60
2019-06-19T16:14:04.338Z,39.60
2019-06-19T16:16:35.379Z,39.10
2019-06-19T16:19:07.385Z,37.40
2019-06-19T16:21:39.354Z,36.80
2019-06-19T16:24:10.296Z,37.10
2019-06-19T16:26:41.425Z,37.90
2019-06-19T16:29:12.417Z,38.50
2019-06-19T16:31:43.391Z,39.00
2019-06-19T16:34:14.266Z,39.60
2019-06-19T16:36:45.328Z,39.50
2019-06-19T16:39:16.290Z,39.60
2019-06-19T16:41:57.348Z,39.10
2019-06-19T16:44:19.958Z,38.80
2019-06-19T16:46:50.928Z,38.50
2019-06-19T16:49:21.876Z,38.80
2019-06-19T16:51:52.842Z,39.40
2019-06-19T16:54:23.831Z,39.70
2019-06-19T16:56:54.779Z,39.00
2019-06-19T16:59:25.716Z,38.80
2019-06-19T17:01:56.684Z,38.40
2019-06-19T17:04:27.620Z,37.70
2019-06-19T17:06:58.610Z,37.40
2019-06-19T17:09:29.945Z,36.80
2019-06-19T17:12:00.917Z,36.30
2019-06-19T17:14:31.849Z,36.20
2019-06-19T17:17:02.920Z,35.80
2019-06-19T17:19:33.875Z,35.10
2019-06-19T17:22:04.969Z,34.30
2019-06-19T17:24:35.969Z,33.70
2019-06-19T17:27:07.015Z,33.20
2019-06-19T17:29:37.959Z,32.90
2019-06-19T17:32:08.952Z,32.80
2019-06-19T17:34:39.950Z,32.50
2019-06-19T17:37:10.920Z,32.10
2019-06-19T17:39:41.892Z,31.70
2019-06-19T17:42:12.910Z,31.40
2019-06-19T17:44:43.853Z,31.20
2019-06-19T17:47:14.826Z,31.00
2019-06-19T17:49:45.771Z,30.80
2019-06-19T17:52:16.790Z,30.60
2019-06-19T17:54:47.771Z,30.50
2019-06-19T17:57:18.767Z,30.40
2019-06-19T17:59:49.787Z,30.20
2019-06-19T18:02:21.732Z,30.10
2019-06-19T18:04:52.675Z,30.00
2019-06-19T18:07:23.690Z,29.80
2019-06-19T18:09:57.864Z,29.50
2019-06-19T18:12:28.260Z,29.20
2019-06-19T18:14:59.343Z,29.00
2019-06-19T18:17:30.406Z,29.00
2019-06-19T18:20:01.477Z,28.80
2019-06-19T18:22:32.462Z,28.60
2019-06-19T18:25:03.627Z,28.40
2019-06-19T18:27:34.568Z,28.30
2019-06-19T18:30:09.007Z,28.10
2019-06-19T18:32:39.953Z,27.90
2019-06-19T18:35:11.622Z,27.80
2019-06-19T18:37:42.561Z,27.70
2019-06-19T18:40:13.684Z,27.60
2019-06-19T18:42:44.665Z,27.50
2019-06-19T18:45:16.073Z,27.40
2019-06-19T18:47:47.032Z,27.30
2019-06-19T18:50:18.710Z,27.20
2019-06-19T18:52:49.644Z,27.10
2019-06-19T18:55:20.619Z,27.00
2019-06-19T18:57:51.564Z,26.80
2019-06-19T19:00:22.885Z,26.60
2019-06-19T19:02:53.863Z,26.50
2019-06-19T19:05:25.030Z,26.30
2019-06-19T19:07:55.971Z,26.10
2019-06-19T19:10:26.943Z,25.90
2019-06-19T19:12:57.887Z,25.80
2019-06-19T19:15:29.262Z,25.60
2019-06-19T19:18:00.203Z,25.40
2019-06-19T19:20:31.214Z,25.10
2019-06-19T19:23:02.202Z,25.10
2019-06-19T19:25:33.177Z,25.00
2019-06-19T19:28:04.152Z,24.90
2019-06-19T19:30:35.164Z,24.90
2019-06-19T19:33:08.876Z,24.70
2019-06-19T19:35:39.858Z,24.60
2019-06-19T19:38:10.907Z,24.40
2019-06-19T19:40:41.943Z,24.20
2019-06-19T19:43:12.898Z,24.20
2019-06-19T19:45:43.881Z,24.10
2019-06-19T19:48:14.842Z,24.00
2019-06-19T19:50:45.848Z,23.90
2019-06-19T19:53:17.879Z,23.80
2019-06-19T19:55:48.918Z,23.60
2019-06-19T19:58:19.868Z,23.50
2019-06-19T20:00:50.878Z,23.30
2019-06-19T20:03:21.816Z,23.20
2019-06-19T20:05:52.785Z,23.10
2019-06-19T20:08:23.731Z,23.00
2019-06-19T20:10:54.701Z,23.00
2019-06-19T20:13:25.648Z,22.80
2019-06-19T20:15:59.666Z,22.70
2019-06-19T20:18:30.603Z,22.60
2019-06-19T20:21:04.666Z,22.60
2019-06-19T20:23:35.678Z,22.60
2019-06-19T20:26:06.649Z,22.60
2019-06-19T20:28:37.636Z,22.40
2019-06-19T20:31:08.786Z,22.30
2019-06-19T20:33:39.732Z,22.20
2019-06-19T20:36:10.705Z,22.10
2019-06-19T20:38:41.676Z,22.10
2019-06-19T20:41:12.651Z,22.00
2019-06-19T20:43:43.587Z,21.90
2019-06-19T20:46:24.490Z,21.80
2019-06-19T20:48:47.233Z,21.60
2019-06-19T20:51:18.263Z,21.50
2019-06-19T20:53:49.252Z,21.40
2019-06-19T20:56:20.224Z,21.30
2019-06-19T20:59:01.825Z,21.30
2019-06-19T21:01:23.831Z,21.30
2019-06-19T21:03:54.785Z,21.20
2019-06-19T21:06:25.837Z,21.20
2019-06-19T21:08:56.846Z,21.10
2019-06-19T21:11:27.816Z,21.00
2019-06-19T21:13:59.845Z,20.90
2019-06-19T21:16:30.924Z,20.80
2019-06-19T21:19:01.855Z,20.60
2019-06-19T21:21:32.833Z,20.50
2019-06-19T21:24:04.896Z,20.30
2019-06-19T21:26:35.905Z,20.20
2019-06-19T21:29:06.915Z,20.10
2019-06-19T21:31:37.893Z,20.00
2019-06-19T21:34:08.841Z,19.80
2019-06-19T21:36:39.875Z,19.70
2019-06-19T21:39:11.028Z,19.60
2019-06-19T21:41:42.400Z,19.60
2019-06-19T21:44:18.763Z,19.50
2019-06-19T21:46:46.007Z,19.50
2019-06-19T21:49:16.954Z,19.40
2019-06-19T21:51:47.920Z,19.30
2019-06-19T21:54:18.869Z,19.30
2019-06-19T21:56:50.867Z,19.20
2019-06-19T21:59:22.470Z,19.10
2019-06-19T22:01:57.555Z,19.00
2019-06-19T22:04:26.095Z,19.00
2019-06-19T22:06:57.080Z,18.90
2019-06-19T22:09:28.023Z,18.80
2019-06-19T22:11:59.011Z,18.60
2019-06-19T22:14:29.957Z,18.50
2019-06-19T22:17:01.032Z,18.40
2019-06-19T22:19:32.007Z,18.30
2019-06-19T22:22:03.024Z,18.40
2019-06-19T22:24:34.018Z,18.40
2019-06-19T22:27:05.083Z,18.40
2019-06-19T22:29:36.033Z,18.30
2019-06-19T22:32:07.014Z,18.10
2019-06-19T22:34:37.987Z,18.20
2019-06-19T22:37:08.981Z,18.10
2019-06-19T22:39:40.122Z,18.00
2019-06-19T22:42:12.269Z,17.90
2019-06-19T22:44:43.422Z,17.90
2019-06-19T22:47:14.391Z,17.90
2019-06-19T22:49:45.350Z,18.10
2019-06-19T22:52:17.342Z,18.00
2019-06-19T22:54:48.310Z,18.10
2019-06-19T22:57:19.299Z,18.10
2019-06-19T22:59:50.242Z,18.20
2019-06-19T23:02:22.785Z,18.40
2019-06-19T23:04:53.757Z,18.40
2019-06-19T23:07:24.748Z,18.30
2019-06-19T23:09:55.725Z,18.30
2019-06-19T23:12:28.151Z,18.30
2019-06-19T23:15:00.291Z,18.30
2019-06-19T23:17:31.278Z,18.20
2019-06-19T23:20:02.268Z,18.10
2019-06-19T23:22:34.219Z,18.10
2019-06-19T23:25:05.505Z,18.00
2019-06-19T23:27:36.446Z,18.00
2019-06-19T23:30:09.128Z,18.20
2019-06-19T23:32:40.069Z,18.40
2019-06-19T23:35:11.139Z,18.50
2019-06-19T23:37:42.093Z,18.50
2019-06-19T23:40:13.169Z,18.50
2019-06-19T23:42:44.749Z,18.30
2019-06-19T23:45:15.870Z,18.30
2019-06-19T23:47:46.819Z,18.30
2019-06-19T23:50:21.639Z,18.50
2019-06-19T23:52:53.582Z,18.70
2019-06-19T23:55:24.635Z,19.00
2019-06-19T23:57:55.571Z,19.40
